createdAt,value
2019-04-02T00:00:54.955Z,25.00
2019-04-02T00:03:21.447Z,25.10
2019-04-02T00:06:07.594Z,22.50
2019-04-02T00:08:33.802Z,24.27
2019-04-02T00:11:00.698Z,21.93
2019-04-02T00:13:30.571Z,23.77
2019-04-02T00:15:57.253Z,21.63
2019-04-02T00:18:24.543Z,21.27
2019-04-02T00:20:50.802Z,21.60
2019-04-02T00:23:19.568Z,21.40
2019-04-02T00:25:45.912Z,20.00
2019-04-02T00:28:12.310Z,18.67
2019-04-02T00:30:38.930Z,17.87
2019-04-02T00:33:06.034Z,17.00
2019-04-02T00:35:32.838Z,17.07
2019-04-02T00:38:03.549Z,17.23
2019-04-02T00:40:33.899Z,16.97
2019-04-02T00:43:02.951Z,16.87
2019-04-02T00:45:29.240Z,19.33
2019-04-02T00:47:55.507Z,19.03
2019-04-02T00:50:21.968Z,19.30
2019-04-02T00:52:48.639Z,21.27
2019-04-02T00:55:15.016Z,22.57
2019-04-02T00:57:41.250Z,21.33
2019-04-02T01:00:08.091Z,22.70
2019-04-02T01:02:34.368Z,24.03
2019-04-02T01:05:00.765Z,23.17
2019-04-02T01:07:27.118Z,21.80
2019-04-02T01:09:53.586Z,21.60
2019-04-02T01:12:19.825Z,24.30
2019-04-02T01:14:49.408Z,24.20
2019-04-02T01:17:15.761Z,25.20
2019-04-02T01:19:42.080Z,24.23
2019-04-02T01:22:10.893Z,24.70
2019-04-02T01:24:37.473Z,22.90
2019-04-02T01:27:04.002Z,20.63
2019-04-02T01:29:30.323Z,21.20
2019-04-02T01:31:56.496Z,20.40
2019-04-02T01:34:27.830Z,19.67
2019-04-02T01:36:54.289Z,19.37
2019-04-02T01:39:20.448Z,21.67
2019-04-02T01:41:46.677Z,21.10
2019-04-02T01:44:12.898Z,24.63
2019-04-02T01:46:39.117Z,22.53
2019-04-02T01:49:05.352Z,21.80
2019-04-02T01:51:31.599Z,20.80
2019-04-02T01:53:58.374Z,21.83
2019-04-02T01:56:25.558Z,20.60
2019-04-02T01:58:51.935Z,19.77
2019-04-02T02:01:19.039Z,18.87
2019-04-02T02:03:46.467Z,19.97
2019-04-02T02:06:13.415Z,22.77
2019-04-02T02:08:39.793Z,20.10
2019-04-02T02:11:06.073Z,18.23
2019-04-02T02:13:32.292Z,20.37
2019-04-02T02:15:58.637Z,19.47
2019-04-02T02:18:24.855Z,19.00
2019-04-02T02:20:51.220Z,18.87
2019-04-02T02:23:17.573Z,20.70
2019-04-02T02:25:44.105Z,19.77
2019-04-02T02:28:10.414Z,20.43
2019-04-02T02:30:36.640Z,21.70
2019-04-02T02:33:03.222Z,19.43
2019-04-02T02:35:29.464Z,21.10
2019-04-02T02:37:55.732Z,19.93
2019-04-02T02:40:59.408Z,19.60
2019-04-02T02:43:25.627Z,20.97
2019-04-02T02:45:51.756Z,21.50
2019-04-02T02:48:18.111Z,29.30
2019-04-02T02:50:44.469Z,27.73
2019-04-02T02:53:10.790Z,27.40
2019-04-02T02:55:36.945Z,25.77
2019-04-02T02:58:03.316Z,28.73
2019-04-02T03:00:29.623Z,23.43
2019-04-02T03:02:56.076Z,26.57
2019-04-02T03:05:22.412Z,27.33
2019-04-02T03:07:48.776Z,25.17
2019-04-02T03:10:19.453Z,23.47
2019-04-02T03:12:45.790Z,25.67
2019-04-02T03:15:12.190Z,26.90
2019-04-02T03:17:38.544Z,28.83
2019-04-02T03:20:05.885Z,29.30
2019-04-02T03:22:32.123Z,28.73
2019-04-02T03:24:58.547Z,26.30
2019-04-02T03:27:24.776Z,27.03
2019-04-02T03:29:51.142Z,26.70
2019-04-02T03:32:17.618Z,26.63
2019-04-02T03:34:43.940Z,28.57
2019-04-02T03:37:10.091Z,25.60
2019-04-02T03:39:38.500Z,26.53
2019-04-02T03:42:04.451Z,25.47
2019-04-02T03:44:33.739Z,25.00
2019-04-02T03:46:59.971Z,27.10
2019-04-02T03:49:26.187Z,26.57
2019-04-02T03:51:52.354Z,26.80
2019-04-02T03:54:22.736Z,25.73
2019-04-02T03:56:47.998Z,29.73
2019-04-02T03:59:14.270Z,29.13
2019-04-02T04:01:40.511Z,28.13
2019-04-02T04:04:06.740Z,31.23
2019-04-02T04:06:35.622Z,32.93
2019-04-02T04:09:01.885Z,33.33
2019-04-02T04:11:28.377Z,34.43
2019-04-02T04:13:54.716Z,34.20
2019-04-02T04:16:20.856Z,32.13
2019-04-02T04:18:49.063Z,30.57
2019-04-02T04:21:15.319Z,28.30
2019-04-02T04:23:41.584Z,26.70
2019-04-02T04:26:08.101Z,28.37
2019-04-02T04:28:35.534Z,26.27
2019-04-02T04:31:01.975Z,30.50
2019-04-02T04:33:28.279Z,29.83
2019-04-02T04:35:54.520Z,37.07
2019-04-02T04:38:20.827Z,34.93
2019-04-02T04:40:49.711Z,34.43
2019-04-02T04:43:15.336Z,31.70
2019-04-02T04:45:41.660Z,30.43
2019-04-02T04:48:12.740Z,29.83
2019-04-02T04:50:39.035Z,32.27
2019-04-02T04:53:05.252Z,29.63
2019-04-02T04:55:32.862Z,27.07
2019-04-02T04:57:59.056Z,25.80
2019-04-02T05:00:25.625Z,25.90
2019-04-02T05:02:58.732Z,28.43
2019-04-02T05:05:26.031Z,26.53
2019-04-02T05:07:52.444Z,28.13
2019-04-02T05:10:19.090Z,29.67
2019-04-02T05:12:45.308Z,27.93
2019-04-02T05:15:11.538Z,29.57
2019-04-02T05:17:37.814Z,27.17
2019-04-02T05:20:04.441Z,25.10
2019-04-02T05:22:30.651Z,25.87
2019-04-02T05:24:56.804Z,29.50
2019-04-02T05:27:23.045Z,25.77
2019-04-02T05:29:51.798Z,26.47
2019-04-02T05:32:18.897Z,26.50
2019-04-02T05:34:45.462Z,28.13
2019-04-02T05:37:11.736Z,33.40
2019-04-02T05:39:37.892Z,32.87
2019-04-02T05:42:04.115Z,28.93
2019-04-02T05:44:30.375Z,31.67
2019-04-02T05:46:56.670Z,30.03
2019-04-02T05:49:22.890Z,30.37
2019-04-02T05:51:49.171Z,31.03
2019-04-02T05:54:15.300Z,31.23
2019-04-02T05:56:44.228Z,30.40
2019-04-02T05:59:09.524Z,30.03
2019-04-02T06:01:35.733Z,28.60
2019-04-02T06:04:02.400Z,32.23
2019-04-02T06:06:28.698Z,31.53
2019-04-02T06:08:54.827Z,34.83
2019-04-02T06:11:21.070Z,31.37
2019-04-02T06:13:47.309Z,30.60
2019-04-02T06:16:13.578Z,30.30
2019-04-02T06:18:39.935Z,29.37
2019-04-02T06:21:06.077Z,28.07
2019-04-02T06:23:32.451Z,32.30
2019-04-02T06:25:58.658Z,27.33
2019-04-02T06:28:24.893Z,25.67
2019-04-02T06:30:51.152Z,24.30
2019-04-02T06:33:17.527Z,24.57
2019-04-02T06:35:44.116Z,22.80
2019-04-02T06:38:10.311Z,22.63
2019-04-02T06:40:36.536Z,23.07
2019-04-02T06:43:03.068Z,21.33
2019-04-02T06:45:29.295Z,20.67
2019-04-02T06:48:06.362Z,18.60
2019-04-02T06:50:34.594Z,20.20
2019-04-02T06:53:02.457Z,18.70
2019-04-02T06:55:29.067Z,18.33
2019-04-02T06:57:55.395Z,29.37
2019-04-02T07:00:23.750Z,30.20
2019-04-02T07:02:50.083Z,24.97
2019-04-02T07:05:16.247Z,28.00
2019-04-02T07:07:42.596Z,25.00
2019-04-02T07:10:09.516Z,26.33
2019-04-02T07:12:43.357Z,25.77
2019-04-02T07:15:05.663Z,26.73
2019-04-02T07:17:32.081Z,25.43
2019-04-02T07:19:59.852Z,25.10
2019-04-02T07:22:26.452Z,24.93
2019-04-02T07:24:52.682Z,28.20
2019-04-02T07:27:18.846Z,40.67
2019-04-02T07:29:46.296Z,41.00
2019-04-02T07:32:13.141Z,37.40
2019-04-02T07:34:39.446Z,33.47
2019-04-02T07:37:06.208Z,33.07
2019-04-02T07:39:32.539Z,30.85
2019-04-02T07:41:58.748Z,31.97
2019-04-02T07:44:25.013Z,29.92
2019-04-02T07:46:51.310Z,29.18
2019-04-02T07:49:18.168Z,30.70
2019-04-02T07:51:44.885Z,32.65
2019-04-02T07:54:11.125Z,32.58
2019-04-02T07:56:37.592Z,29.65
2019-04-02T07:59:04.510Z,27.10
2019-04-02T08:01:30.664Z,28.38
2019-04-02T08:03:57.194Z,41.58
2019-04-02T08:06:23.364Z,47.25
2019-04-02T08:08:49.693Z,41.55
2019-04-02T08:11:16.167Z,50.23
2019-04-02T08:13:42.531Z,53.90
2019-04-02T08:16:09.131Z,53.10
2019-04-02T08:18:35.459Z,51.45
2019-04-02T08:21:01.928Z,47.53
2019-04-02T08:23:28.694Z,48.15
2019-04-02T08:25:55.583Z,45.50
2019-04-02T08:28:21.700Z,47.83
2019-04-02T08:30:47.968Z,46.58
2019-04-02T08:33:14.666Z,40.00
2019-04-02T08:35:41.062Z,36.20
2019-04-02T08:38:08.149Z,45.83
2019-04-02T08:40:34.730Z,47.85
2019-04-02T08:43:00.891Z,41.90
2019-04-02T08:45:27.201Z,38.28
2019-04-02T08:47:54.921Z,35.92
2019-04-02T08:50:28.229Z,30.82
2019-04-02T08:52:56.837Z,28.57
2019-04-02T08:55:22.964Z,23.30
2019-04-02T08:57:54.914Z,29.57
2019-04-02T09:00:21.635Z,31.50
2019-04-02T09:02:47.845Z,35.45
2019-04-02T09:05:14.174Z,33.53
2019-04-02T09:07:40.550Z,31.35
2019-04-02T09:10:07.098Z,34.33
2019-04-02T09:12:33.711Z,34.92
2019-04-02T09:15:00.491Z,29.60
2019-04-02T09:17:34.733Z,24.32
2019-04-02T09:19:57.243Z,16.90
2019-04-02T09:22:23.635Z,15.23
2019-04-02T09:24:50.164Z,10.72
2019-04-02T09:27:16.339Z,11.33
2019-04-02T09:29:43.522Z,17.20
2019-04-02T09:32:10.095Z,17.95
2019-04-02T09:34:36.252Z,18.80
2019-04-02T09:37:02.607Z,21.60
2019-04-02T09:39:28.737Z,18.95
2019-04-02T09:41:55.078Z,15.90
2019-04-02T09:44:21.245Z,17.67
2019-04-02T09:46:47.460Z,14.85
2019-04-02T09:49:13.611Z,13.35
2019-04-02T09:51:39.866Z,13.58
2019-04-02T09:54:06.007Z,12.68
2019-04-02T09:56:32.336Z,16.17
2019-04-02T09:58:58.790Z,13.25
2019-04-02T10:01:25.219Z,11.73
2019-04-02T10:03:51.581Z,13.50
2019-04-02T10:06:17.913Z,13.08
2019-04-02T10:08:44.291Z,13.83
2019-04-02T10:11:10.714Z,12.55
2019-04-02T10:13:36.942Z,12.13
2019-04-02T10:16:03.563Z,11.25
2019-04-02T10:18:29.886Z,11.20
2019-04-02T10:20:56.345Z,11.75
2019-04-02T10:23:22.682Z,12.40
2019-04-02T10:25:48.941Z,10.60
2019-04-02T10:28:15.394Z,9.85
2019-04-02T10:30:41.743Z,11.55
2019-04-02T10:33:08.064Z,13.43
2019-04-02T10:35:34.331Z,14.53
2019-04-02T10:38:02.399Z,14.87
2019-04-02T10:40:28.667Z,15.48
2019-04-02T10:42:55.028Z,17.35
2019-04-02T10:45:25.908Z,16.67
2019-04-02T10:47:52.899Z,15.28
2019-04-02T10:50:21.053Z,14.13
2019-04-02T10:52:47.704Z,19.30
2019-04-02T10:55:14.138Z,17.55
2019-04-02T10:57:40.534Z,12.28
2019-04-02T11:00:09.248Z,15.83
2019-04-02T11:02:35.758Z,16.65
2019-04-02T11:05:04.608Z,15.58
2019-04-02T11:07:30.855Z,15.58
2019-04-02T11:09:57.212Z,13.25
2019-04-02T11:12:23.546Z,12.93
2019-04-02T11:14:49.908Z,14.20
2019-04-02T11:17:16.141Z,14.63
2019-04-02T11:19:42.409Z,14.23
2019-04-02T11:22:09.606Z,10.15
2019-04-02T11:24:35.883Z,11.15
2019-04-02T11:27:02.329Z,11.40
2019-04-02T11:29:28.701Z,10.10
2019-04-02T11:31:55.085Z,9.33
2019-04-02T11:34:21.507Z,10.20
2019-04-02T11:36:47.735Z,11.55
2019-04-02T11:39:14.067Z,11.43
2019-04-02T11:41:40.320Z,10.78
2019-04-02T11:44:06.559Z,10.78
2019-04-02T11:46:33.016Z,12.43
2019-04-02T11:49:00.346Z,13.80
2019-04-02T11:51:27.171Z,10.85
2019-04-02T11:53:56.112Z,12.07
2019-04-02T11:56:25.612Z,10.93
2019-04-02T11:58:55.407Z,16.93
2019-04-02T12:01:22.748Z,14.95
2019-04-02T12:03:49.798Z,15.18
2019-04-02T12:06:16.033Z,14.28
2019-04-02T12:08:42.274Z,12.25
2019-04-02T12:11:08.555Z,11.48
2019-04-02T12:13:34.772Z,11.18
2019-04-02T12:16:01.099Z,11.22
2019-04-02T12:18:27.358Z,12.55
2019-04-02T12:20:53.470Z,13.13
2019-04-02T12:23:19.628Z,14.45
2019-04-02T12:25:45.874Z,9.55
2019-04-02T12:28:12.211Z,9.58
2019-04-02T12:30:44.864Z,8.60
2019-04-02T12:33:13.754Z,10.95
2019-04-02T12:35:40.066Z,12.93
2019-04-02T12:38:06.430Z,10.70
2019-04-02T12:40:40.255Z,12.85
2019-04-02T12:43:01.286Z,10.10
2019-04-02T12:45:27.634Z,13.53
2019-04-02T12:47:54.236Z,12.03
2019-04-02T12:50:20.636Z,11.18
2019-04-02T12:52:46.847Z,13.28
2019-04-02T12:55:14.053Z,12.07
2019-04-02T12:57:41.219Z,13.00
2019-04-02T13:00:08.194Z,12.23
2019-04-02T13:02:37.504Z,12.33
2019-04-02T13:05:07.634Z,14.30
2019-04-02T13:07:33.979Z,11.95
2019-04-02T13:10:00.116Z,13.32
2019-04-02T13:12:26.378Z,11.25
2019-04-02T13:14:52.813Z,10.35
2019-04-02T13:17:19.922Z,11.25
2019-04-02T13:19:46.136Z,9.70
2019-04-02T13:22:12.778Z,9.85
2019-04-02T13:24:41.496Z,8.58
2019-04-02T13:27:11.534Z,10.85
2019-04-02T13:29:39.722Z,8.58
2019-04-02T13:32:10.768Z,8.83
2019-04-02T13:34:37.948Z,7.03
2019-04-02T13:37:04.186Z,7.03
2019-04-02T13:39:30.590Z,9.53
2019-04-02T13:42:01.171Z,10.28
2019-04-02T13:44:27.174Z,11.30
2019-04-02T13:46:53.519Z,11.90
2019-04-02T13:49:20.534Z,9.30
2019-04-02T13:52:00.057Z,10.65
2019-04-02T13:54:20.998Z,9.85
2019-04-02T13:56:49.175Z,9.80
2019-04-02T13:59:15.414Z,12.73
2019-04-02T14:01:42.398Z,6.75
2019-04-02T14:04:08.632Z,6.37
2019-04-02T14:06:37.036Z,6.28
2019-04-02T14:09:07.248Z,8.28
2019-04-02T14:11:41.317Z,9.20
2019-04-02T14:14:07.601Z,10.05
2019-04-02T14:16:33.944Z,8.88
2019-04-02T14:19:00.294Z,9.50
2019-04-02T14:21:26.623Z,8.33
2019-04-02T14:23:52.770Z,8.43
2019-04-02T14:26:20.421Z,8.60
2019-04-02T14:28:49.828Z,9.50
2019-04-02T14:31:18.741Z,9.98
2019-04-02T14:33:45.104Z,9.18
2019-04-02T14:36:12.712Z,8.43
2019-04-02T14:38:39.597Z,7.62
2019-04-02T14:41:05.814Z,7.30
2019-04-02T14:43:32.191Z,7.97
2019-04-02T14:45:58.419Z,7.70
2019-04-02T14:48:24.732Z,6.72
2019-04-02T14:50:50.972Z,7.62
2019-04-02T14:53:17.210Z,7.37
2019-04-02T14:55:43.359Z,6.78
2019-04-02T14:58:31.145Z,7.22
2019-04-02T15:00:58.817Z,8.73
2019-04-02T15:03:25.216Z,8.85
2019-04-02T15:05:51.476Z,9.93
2019-04-02T15:08:17.919Z,9.70
2019-04-02T15:10:44.150Z,10.15
2019-04-02T15:13:10.401Z,9.23
2019-04-02T15:15:36.653Z,8.73
2019-04-02T15:18:03.179Z,8.35
2019-04-02T15:20:29.662Z,9.90
2019-04-02T15:22:56.092Z,8.73
2019-04-02T15:25:22.199Z,9.60
2019-04-02T15:27:50.526Z,8.33
2019-04-02T15:30:16.510Z,10.98
2019-04-02T15:32:42.798Z,8.15
2019-04-02T15:35:09.431Z,7.58
2019-04-02T15:37:35.681Z,6.95
2019-04-02T15:40:04.338Z,7.42
2019-04-02T15:42:30.686Z,5.58
2019-04-02T15:44:57.345Z,7.03
2019-04-02T15:47:23.760Z,9.25
2019-04-02T15:49:50.101Z,8.75
2019-04-02T15:52:16.220Z,10.48
2019-04-02T15:54:42.876Z,9.93
2019-04-02T15:57:09.690Z,9.15
2019-04-02T15:59:40.000Z,9.37
2019-04-02T16:02:06.378Z,11.90
2019-04-02T16:04:32.714Z,13.13
2019-04-02T16:06:59.042Z,13.75
2019-04-02T16:09:25.513Z,11.20
2019-04-02T16:11:51.804Z,10.42
2019-04-02T16:14:18.119Z,11.43
2019-04-02T16:16:44.265Z,11.40
2019-04-02T16:19:10.733Z,10.35
2019-04-02T16:21:39.388Z,11.28
2019-04-02T16:24:05.343Z,10.00
2019-04-02T16:26:31.509Z,9.28
2019-04-02T16:28:57.726Z,11.88
2019-04-02T16:31:23.972Z,9.90
2019-04-02T16:33:52.845Z,8.35
2019-04-02T16:36:18.238Z,7.67
2019-04-02T16:38:44.503Z,6.37
2019-04-02T16:41:11.091Z,7.45
2019-04-02T16:43:37.418Z,6.40
2019-04-02T16:46:03.888Z,5.60
2019-04-02T16:48:30.149Z,5.83
2019-04-02T16:50:57.576Z,6.55
2019-04-02T16:53:24.438Z,6.10
2019-04-02T16:55:51.142Z,8.10
2019-04-02T16:58:17.374Z,7.72
2019-04-02T17:00:43.876Z,8.70
2019-04-02T17:03:10.252Z,9.85
2019-04-02T17:05:36.705Z,8.30
2019-04-02T17:08:03.154Z,8.35
2019-04-02T17:10:30.005Z,7.10
2019-04-02T17:12:57.463Z,10.40
2019-04-02T17:15:23.972Z,8.25
2019-04-02T17:17:54.413Z,9.20
2019-04-02T17:20:20.862Z,6.15
2019-04-02T17:22:47.142Z,5.37
2019-04-02T17:25:13.486Z,7.40
2019-04-02T17:27:39.810Z,8.23
2019-04-02T17:30:08.548Z,8.23
2019-04-02T17:32:34.999Z,7.35
2019-04-02T17:35:01.276Z,6.55
2019-04-02T17:37:27.781Z,5.95
2019-04-02T17:39:53.912Z,6.37
2019-04-02T17:42:20.257Z,9.23
2019-04-02T17:44:48.020Z,8.50
2019-04-02T17:47:14.393Z,11.35
2019-04-02T17:49:40.687Z,7.87
2019-04-02T17:52:06.931Z,6.62
2019-04-02T17:54:33.294Z,6.70
2019-04-02T17:56:59.435Z,7.47
2019-04-02T17:59:27.481Z,6.45
2019-04-02T18:01:53.814Z,6.78
2019-04-02T18:04:21.669Z,5.65
2019-04-02T18:06:51.420Z,7.08
2019-04-02T18:09:18.944Z,7.70
2019-04-02T18:11:45.197Z,8.38
2019-04-02T18:14:11.442Z,8.28
2019-04-02T18:16:37.920Z,8.25
2019-04-02T18:19:04.238Z,8.75
2019-04-02T18:21:30.505Z,8.78
2019-04-02T18:23:56.859Z,9.05
2019-04-02T18:26:23.117Z,9.03
2019-04-02T18:28:49.328Z,7.28
2019-04-02T18:31:15.680Z,6.22
2019-04-02T18:33:41.918Z,7.40
2019-04-02T18:36:08.025Z,8.30
2019-04-02T18:38:34.226Z,7.20
2019-04-02T18:41:00.358Z,9.55
2019-04-02T18:43:26.717Z,9.50
2019-04-02T18:45:53.318Z,10.35
2019-04-02T18:48:19.576Z,11.90
2019-04-02T18:50:45.796Z,9.33
2019-04-02T18:53:12.164Z,11.03
2019-04-02T18:55:38.426Z,10.25
2019-04-02T18:58:04.624Z,9.13
2019-04-02T19:00:39.358Z,8.00
2019-04-02T19:03:05.711Z,8.40
2019-04-02T19:05:32.056Z,8.55
2019-04-02T19:07:58.500Z,8.25
2019-04-02T19:10:26.134Z,7.80
2019-04-02T19:12:52.870Z,7.20
2019-04-02T19:15:20.552Z,5.87
2019-04-02T19:17:46.814Z,6.37
2019-04-02T19:20:13.464Z,7.12
2019-04-02T19:22:39.622Z,7.12
2019-04-02T19:25:06.081Z,5.97
2019-04-02T19:27:32.619Z,6.40
2019-04-02T19:29:59.103Z,7.90
2019-04-02T19:32:25.557Z,7.50
2019-04-02T19:34:52.014Z,6.30
2019-04-02T19:37:18.384Z,6.53
2019-04-02T19:39:44.683Z,6.80
2019-04-02T19:42:11.072Z,6.72
2019-04-02T19:44:37.666Z,6.80
2019-04-02T19:47:04.129Z,6.72
2019-04-02T19:49:31.774Z,6.12
2019-04-02T19:51:58.467Z,6.78
2019-04-02T19:54:24.802Z,6.85
2019-04-02T19:56:51.926Z,6.05
2019-04-02T19:59:22.973Z,5.30
2019-04-02T20:01:47.039Z,5.17
2019-04-02T20:04:13.497Z,4.55
2019-04-02T20:06:39.736Z,4.33
2019-04-02T20:09:06.965Z,4.28
2019-04-02T20:11:33.395Z,4.65
2019-04-02T20:14:02.312Z,4.90
2019-04-02T20:16:27.628Z,4.75
2019-04-02T20:18:53.878Z,4.37
2019-04-02T20:21:20.314Z,4.83
2019-04-02T20:23:46.568Z,4.60
2019-04-02T20:26:13.839Z,5.20
2019-04-02T20:28:41.539Z,4.50
2019-04-02T20:31:07.708Z,4.12
2019-04-02T20:33:41.028Z,4.40
2019-04-02T20:36:04.914Z,4.50
2019-04-02T20:38:31.038Z,4.65
2019-04-02T20:40:58.851Z,4.60
2019-04-02T20:43:28.852Z,4.33
2019-04-02T20:45:55.358Z,5.17
2019-04-02T20:48:21.698Z,4.80
2019-04-02T20:50:47.819Z,4.37
2019-04-02T20:53:16.584Z,4.85
2019-04-02T20:55:42.584Z,4.30
2019-04-02T20:58:09.781Z,4.95
2019-04-02T21:00:36.366Z,5.33
2019-04-02T21:03:02.721Z,6.62
2019-04-02T21:05:29.074Z,7.92
2019-04-02T21:07:55.310Z,6.00
2019-04-02T21:10:21.639Z,5.20
2019-04-02T21:12:47.771Z,4.90
2019-04-02T21:15:23.820Z,5.40
2019-04-02T21:17:43.464Z,4.50
2019-04-02T21:20:11.851Z,5.42
2019-04-02T21:22:38.031Z,5.22
2019-04-02T21:25:05.324Z,6.05
2019-04-02T21:27:33.350Z,6.12
2019-04-02T21:29:59.540Z,5.92
2019-04-02T21:32:27.984Z,5.08
2019-04-02T21:34:53.861Z,5.20
2019-04-02T21:37:20.102Z,5.35
2019-04-02T21:39:46.241Z,4.58
2019-04-02T21:42:12.514Z,5.33
2019-04-02T21:44:38.755Z,5.95
2019-04-02T21:47:07.161Z,5.75
2019-04-02T21:49:33.069Z,4.50
2019-04-02T21:51:59.275Z,4.10
2019-04-02T21:54:30.398Z,3.95
2019-04-02T21:56:56.627Z,3.60
2019-04-02T21:59:22.902Z,3.92
2019-04-02T22:01:51.417Z,3.98
2019-04-02T22:04:17.762Z,3.60
2019-04-02T22:06:44.011Z,4.17
2019-04-02T22:09:12.971Z,4.80
2019-04-02T22:11:41.774Z,3.72
2019-04-02T22:14:12.065Z,3.47
2019-04-02T22:16:38.090Z,3.60
2019-04-02T22:19:04.465Z,3.15
2019-04-02T22:21:30.827Z,2.87
2019-04-02T22:23:57.176Z,2.85
2019-04-02T22:26:23.637Z,3.00
2019-04-02T22:28:49.900Z,2.70
2019-04-02T22:31:17.879Z,3.10
2019-04-02T22:33:44.304Z,3.42
2019-04-02T22:36:10.456Z,3.70
2019-04-02T22:38:36.719Z,4.28
2019-04-02T22:41:02.961Z,3.60
2019-04-02T22:43:29.108Z,3.52
2019-04-02T22:45:58.494Z,2.95
2019-04-02T22:48:25.434Z,3.17
2019-04-02T22:50:55.728Z,3.15
2019-04-02T22:53:22.150Z,2.70
2019-04-02T22:55:48.312Z,2.77
2019-04-02T22:58:14.545Z,2.60
2019-04-02T23:00:40.869Z,2.52
2019-04-02T23:03:07.091Z,2.80
2019-04-02T23:05:34.170Z,2.80
2019-04-02T23:08:03.293Z,2.90
2019-04-02T23:10:29.405Z,3.07
2019-04-02T23:12:55.645Z,3.05
2019-04-02T23:15:21.993Z,2.80
2019-04-02T23:17:54.858Z,2.85
2019-04-02T23:20:16.228Z,3.92
2019-04-02T23:22:45.270Z,3.98
2019-04-02T23:25:12.588Z,4.80
2019-04-02T23:27:38.857Z,4.35
2019-04-02T23:30:08.490Z,4.33
2019-04-02T23:32:34.834Z,4.30
2019-04-02T23:35:01.030Z,4.67
2019-04-02T23:37:28.446Z,4.42
2019-04-02T23:39:55.206Z,4.00
2019-04-02T23:42:21.699Z,3.92
2019-04-02T23:44:47.948Z,3.20
2019-04-02T23:47:14.181Z,4.37
2019-04-02T23:49:40.587Z,3.10
2019-04-02T23:52:07.155Z,2.70
2019-04-02T23:54:33.707Z,3.05
2019-04-02T23:57:00.023Z,2.55
2019-04-02T23:59:26.180Z,2.60
